| Date | Time | Temp. (oF) | Dew Point (oF) | Rel. Hum. (%) | Press. (in.) | Wind Dir. | Wind Speed (mph) | Hourly Rainfall (in.) |
|
|---|---|---|---|---|---|---|---|---|---|
| 1 | 04/25 | 00:00 | 46 | 36 | 68 | 30.20 | SE | 5 | 0.00 |
| 2 | 04/24 | 23:00 | 48 | 35 | 62 | 30.19 | SE | 4 | 0.00 |
| 3 | 04/24 | 22:00 | 50 | 31 | 49 | 30.20 | SSE | 3 | 0.00 |
| 4 | 04/24 | 21:00 | 52 | 31 | 45 | 30.16 | SSE | 3 | 0.00 |
| 5 | 04/24 | 20:00 | 55 | 32 | 42 | 30.16 | SSW | 7 | 0.00 |
| 6 | 04/24 | 19:00 | 59 | 33 | 38 | 30.14 | S | 4 | 0.00 |
| 7 | 04/24 | 18:00 | 62 | 32 | 33 | 30.15 | S | 2 | 0.00 |
| 8 | 04/24 | 17:00 | 61 | 31 | 33 | 30.16 | SSE | 2 | 0.00 |
| 9 | 04/24 | 16:00 | 61 | 29 | 30 | 30.18 | SSW | 6 | 0.00 |
| 10 | 04/24 | 15:00 | 59 | 29 | 33 | 30.22 | SSE | 3 | 0.00 |
| 11 | 04/24 | 14:00 | 58 | 30 | 35 | 30.24 | SW | 1 | 0.00 |
| 12 | 04/24 | 13:00 | 56 | 27 | 34 | 30.26 | SSW | 5 | 0.00 |
| 13 | 04/24 | 12:00 | 54 | 28 | 38 | 30.29 | N | 2 | 0.00 |
| 14 | 04/24 | 11:00 | 54 | 31 | 43 | 30.32 | NNW | 3 | 0.00 |
| 15 | 04/24 | 10:00 | 51 | 30 | 45 | 30.33 | N | 2 | 0.00 |
| 16 | 04/24 | 09:00 | 45 | 35 | 69 | 30.34 | NNW | 2 | 0.00 |
| 17 | 04/24 | 08:00 | 36 | 35 | 99 | 30.33 | S | 0 | 0.00 |
| 18 | 04/24 | 07:00 | 31 | 29 | 96 | 30.32 | S | 1 | 0.00 |
| 19 | 04/24 | 06:00 | 31 | 29 | 94 | 30.29 | S | 0 | 0.00 |
| 20 | 04/24 | 05:00 | 33 | 29 | 88 | 30.27 | N | 0 | 0.00 |
| 21 | 04/24 | 04:00 | 35 | 30 | 85 | 30.26 | NNE | 0 | 0.00 |
| 22 | 04/24 | 03:00 | 37 | 31 | 79 | 30.25 | NNW | 0 | 0.00 |
| 23 | 04/24 | 02:00 | 38 | 29 | 70 | 30.23 | N | 1 | 0.00 |
| 24 | 04/24 | 01:00 | 42 | 31 | 66 | 30.22 | NNW | 1 | 0.00 |